createdAt,value
2023-03-15T00:02:04.882Z,101377.31
2023-03-15T00:04:32.768Z,101376.53
2023-03-15T00:07:00.999Z,101375.59
2023-03-15T00:09:28.442Z,101369.66
2023-03-15T00:11:55.965Z,101369.53
2023-03-15T00:14:23.511Z,101366.09
2023-03-15T00:16:51.226Z,101363.34
2023-03-15T00:19:18.667Z,101359.66
2023-03-15T00:21:46.153Z,101354.22
2023-03-15T00:24:13.407Z,101346.38
2023-03-15T00:26:40.783Z,101353.25
2023-03-15T00:29:09.480Z,101346.44
2023-03-15T00:31:37.227Z,101345.03
2023-03-15T00:34:04.668Z,101347.31
2023-03-15T00:36:32.286Z,101351.38
2023-03-15T00:38:59.657Z,101356.72
2023-03-15T00:41:27.389Z,101356.53
2023-03-15T00:43:54.934Z,101353.56
2023-03-15T00:46:22.530Z,101352.47
2023-03-15T00:48:51.369Z,101345.53
2023-03-15T00:51:22.051Z,101353.16
2023-03-15T00:53:51.661Z,101354.03
2023-03-15T00:56:24.711Z,101344.66
2023-03-15T00:58:53.179Z,101348.41
2023-03-15T01:01:24.620Z,101348.38
2023-03-15T01:03:53.132Z,101355.13
2023-03-15T01:06:25.560Z,101357.56
2023-03-15T01:08:55.931Z,101361.16
2023-03-15T01:11:25.894Z,101363.22
2023-03-15T01:13:55.821Z,101369.13
2023-03-15T01:16:23.955Z,101368.09
2023-03-15T01:18:51.994Z,101371.44
2023-03-15T01:21:21.629Z,101368.16
2023-03-15T01:23:49.323Z,101373.19
2023-03-15T01:26:18.129Z,101376.97
2023-03-15T01:28:45.899Z,101379.63
2023-03-15T01:31:26.215Z,101370.00
2023-03-15T01:33:54.428Z,101376.88
2023-03-15T01:36:22.240Z,101367.22
2023-03-15T01:38:50.236Z,101369.88
2023-03-15T01:41:21.223Z,101379.56
2023-03-15T01:43:48.970Z,101379.66
2023-03-15T01:46:23.818Z,101379.66
2023-03-15T01:48:59.020Z,101384.09
2023-03-15T01:51:54.556Z,101380.03
2023-03-15T01:54:40.507Z,101383.72
2023-03-15T01:57:13.486Z,101374.47
2023-03-15T01:59:48.376Z,101372.97
2023-03-15T02:02:16.098Z,101382.28
2023-03-15T02:04:49.664Z,101387.03
2023-03-15T02:07:22.766Z,101381.75
2023-03-15T02:10:05.704Z,101378.03
2023-03-15T02:12:41.032Z,101380.50
2023-03-15T02:15:09.746Z,101376.19
2023-03-15T02:17:41.109Z,101377.81
2023-03-15T02:20:39.297Z,101377.81
2023-03-15T02:23:11.674Z,101380.50
2023-03-15T02:25:52.111Z,101372.34
2023-03-15T02:28:20.618Z,101380.81
2023-03-15T02:30:48.846Z,101386.84
2023-03-15T02:33:21.563Z,101374.75
2023-03-15T02:35:49.205Z,101377.41
2023-03-15T02:38:17.919Z,101368.06
2023-03-15T02:40:46.541Z,101377.44
2023-03-15T02:43:24.292Z,101370.66
2023-03-15T02:45:54.452Z,101378.44
2023-03-15T02:48:22.116Z,101370.75
2023-03-15T02:50:49.754Z,101376.03
2023-03-15T02:53:17.370Z,101373.25
2023-03-15T02:55:44.830Z,101368.88
2023-03-15T02:58:12.410Z,101373.09
2023-03-15T03:00:40.445Z,101369.63
2023-03-15T03:03:09.024Z,101362.63
2023-03-15T03:05:36.646Z,101363.50
2023-03-15T03:08:04.031Z,101360.06
2023-03-15T03:10:31.788Z,101359.09
2023-03-15T03:13:02.036Z,101360.78
2023-03-15T03:15:35.993Z,101355.41
2023-03-15T03:18:04.008Z,101359.69
2023-03-15T03:20:31.531Z,101350.03
2023-03-15T03:22:59.074Z,101356.88
2023-03-15T03:25:27.350Z,101351.53
2023-03-15T03:27:57.321Z,101355.00
2023-03-15T03:30:27.216Z,101357.59
2023-03-15T03:32:54.700Z,101351.53
2023-03-15T03:35:22.320Z,101349.81
2023-03-15T03:37:50.123Z,101351.50
2023-03-15T03:40:22.250Z,101353.16
2023-03-15T03:42:49.824Z,101352.81
2023-03-15T03:45:19.759Z,101346.63
2023-03-15T03:47:51.868Z,101336.06
2023-03-15T03:50:19.539Z,101331.44
2023-03-15T03:52:47.181Z,101339.19
2023-03-15T03:55:25.555Z,101340.00
2023-03-15T03:57:54.441Z,101348.56
2023-03-15T04:00:36.377Z,101338.97
2023-03-15T04:03:04.978Z,101335.50
2023-03-15T04:05:34.903Z,101336.22
2023-03-15T04:08:02.612Z,101326.63
2023-03-15T04:10:35.216Z,101328.53
2023-03-15T04:13:03.439Z,101320.09
2023-03-15T04:15:31.520Z,101314.97
2023-03-15T04:17:59.420Z,101320.16
2023-03-15T04:20:39.063Z,101319.44
2023-03-15T04:23:07.451Z,101312.72
2023-03-15T04:25:58.060Z,101318.00
2023-03-15T04:28:44.248Z,101323.88
2023-03-15T04:31:37.801Z,101329.09
2023-03-15T04:34:20.408Z,101331.28
2023-03-15T04:37:13.909Z,101338.81
2023-03-15T04:40:00.128Z,101336.31
2023-03-15T04:42:42.118Z,101341.19
2023-03-15T04:45:28.933Z,101345.50
2023-03-15T04:48:01.583Z,101357.16
2023-03-15T04:50:58.392Z,101362.97
2023-03-15T04:53:46.284Z,101359.44
2023-03-15T04:56:37.543Z,101366.97
2023-03-15T04:59:23.608Z,101367.66
2023-03-15T05:01:57.294Z,101369.47
2023-03-15T05:04:50.954Z,101371.34
2023-03-15T05:07:26.031Z,101368.81
2023-03-15T05:10:17.138Z,101378.41
2023-03-15T05:12:53.879Z,101385.13
2023-03-15T05:15:35.039Z,101382.03
2023-03-15T05:18:22.069Z,101386.81
2023-03-15T05:21:08.261Z,101383.31
2023-03-15T05:23:54.847Z,101373.78
2023-03-15T05:26:28.284Z,101367.16
2023-03-15T05:29:16.879Z,101372.63
2023-03-15T05:31:58.959Z,101387.34
2023-03-15T05:34:42.964Z,101394.66
2023-03-15T05:37:27.995Z,101393.63
2023-03-15T05:39:55.628Z,101391.63
2023-03-15T05:42:41.739Z,101395.16
2023-03-15T05:45:31.188Z,101397.53
2023-03-15T05:48:17.293Z,101400.00
2023-03-15T05:51:17.435Z,101399.78
2023-03-15T05:54:07.772Z,101399.56
2023-03-15T05:57:00.057Z,101404.78
2023-03-15T05:59:43.870Z,101402.78
2023-03-15T06:02:45.350Z,101407.69
2023-03-15T06:05:38.740Z,101407.16
2023-03-15T06:08:10.952Z,101402.75
2023-03-15T06:10:42.435Z,101401.88
2023-03-15T06:13:11.986Z,101396.88
2023-03-15T06:15:40.486Z,101390.50
2023-03-15T06:18:10.072Z,101379.28
2023-03-15T06:20:38.083Z,101375.69
2023-03-15T06:23:11.199Z,101372.50
2023-03-15T06:25:46.938Z,101379.78
2023-03-15T06:28:15.000Z,101378.34
2023-03-15T06:30:49.091Z,101376.75
2023-03-15T06:33:16.872Z,101372.66
2023-03-15T06:35:46.852Z,101365.25
2023-03-15T06:38:15.343Z,101366.56
2023-03-15T06:40:43.896Z,101369.81
2023-03-15T06:43:18.254Z,101378.47
2023-03-15T06:45:46.824Z,101373.19
2023-03-15T06:48:14.944Z,101380.09
2023-03-15T06:50:47.393Z,101373.00
2023-03-15T06:53:16.402Z,101379.75
2023-03-15T06:55:45.393Z,101384.78
2023-03-15T06:58:13.984Z,101393.28
2023-03-15T07:00:42.485Z,101383.63
2023-03-15T07:03:10.674Z,101382.00
2023-03-15T07:05:38.118Z,101384.81
2023-03-15T07:08:05.791Z,101387.75
2023-03-15T07:10:34.036Z,101391.88
2023-03-15T07:13:01.820Z,101397.09
2023-03-15T07:15:29.259Z,101389.69
2023-03-15T07:17:57.078Z,101392.78
2023-03-15T07:20:27.108Z,101390.94
2023-03-15T07:22:54.676Z,101382.91
2023-03-15T07:25:24.167Z,101396.44
2023-03-15T07:27:53.019Z,101398.59
2023-03-15T07:30:21.341Z,101398.00
2023-03-15T07:32:49.057Z,101392.03
2023-03-15T07:35:18.238Z,101400.84
2023-03-15T07:37:46.375Z,101395.56
2023-03-15T07:40:14.078Z,101400.69
2023-03-15T07:42:42.166Z,101403.16
2023-03-15T07:45:10.411Z,101415.31
2023-03-15T07:47:38.130Z,101415.41
2023-03-15T07:50:06.776Z,101399.00
2023-03-15T07:52:34.354Z,101402.66
2023-03-15T07:55:01.796Z,101406.16
2023-03-15T07:57:29.281Z,101404.41
2023-03-15T07:59:56.814Z,101408.63
2023-03-15T08:02:24.320Z,101407.00
2023-03-15T08:04:51.795Z,101399.38
2023-03-15T08:07:19.408Z,101383.59
2023-03-15T08:09:46.885Z,101384.44
2023-03-15T08:12:14.614Z,101394.88
2023-03-15T08:14:42.074Z,101392.16
2023-03-15T08:17:13.188Z,101400.03
2023-03-15T08:19:40.737Z,101395.00
2023-03-15T08:22:08.323Z,101394.97
2023-03-15T08:24:36.079Z,101394.06
2023-03-15T08:27:05.114Z,101395.69
2023-03-15T08:29:32.588Z,101392.88
2023-03-15T08:32:00.217Z,101390.13
2023-03-15T08:34:27.656Z,101387.28
2023-03-15T08:36:55.223Z,101386.84
2023-03-15T08:39:24.154Z,101390.19
2023-03-15T08:41:51.733Z,101393.66
2023-03-15T08:44:19.370Z,101388.50
2023-03-15T08:46:46.965Z,101391.59
2023-03-15T08:49:14.575Z,101386.75
2023-03-15T08:51:42.008Z,101384.13
2023-03-15T08:54:09.782Z,101394.53
2023-03-15T08:56:37.234Z,101388.94
2023-03-15T08:59:05.293Z,101389.59
2023-03-15T09:01:32.826Z,101384.81
2023-03-15T09:04:01.303Z,101387.00
2023-03-15T09:06:29.042Z,101392.63
2023-03-15T09:08:56.680Z,101381.50
2023-03-15T09:11:24.156Z,101377.09
2023-03-15T09:13:51.787Z,101394.44
2023-03-15T09:16:19.314Z,101395.78
2023-03-15T09:18:46.811Z,101392.88
2023-03-15T09:21:14.230Z,101395.13
2023-03-15T09:23:41.917Z,101391.31
2023-03-15T09:26:09.441Z,101388.28
2023-03-15T09:28:36.965Z,101399.56
2023-03-15T09:31:06.562Z,101395.41
2023-03-15T09:33:34.189Z,101399.69
2023-03-15T09:36:01.611Z,101397.94
2023-03-15T09:38:29.301Z,101399.69
2023-03-15T09:40:58.737Z,101391.75
2023-03-15T09:43:47.441Z,101402.97
2023-03-15T09:46:27.930Z,101401.13
2023-03-15T09:49:05.849Z,101402.34
2023-03-15T09:51:52.242Z,101424.38
2023-03-15T09:54:50.376Z,101419.25
2023-03-15T09:57:24.111Z,101413.47
2023-03-15T09:59:54.532Z,101404.59
2023-03-15T10:02:30.257Z,101410.94
2023-03-15T10:05:11.187Z,101401.88
2023-03-15T10:07:38.725Z,101397.97
2023-03-15T10:10:18.213Z,101406.44
2023-03-15T10:13:16.718Z,101410.31
2023-03-15T10:15:44.341Z,101414.78
2023-03-15T10:18:14.615Z,101416.72
2023-03-15T10:20:49.678Z,101420.38
2023-03-15T10:23:23.657Z,101423.94
2023-03-15T10:25:52.192Z,101426.56
2023-03-15T10:28:33.857Z,101418.66
2023-03-15T10:31:22.353Z,101423.94
2023-03-15T10:33:57.483Z,101426.59
2023-03-15T10:36:26.313Z,101430.09
2023-03-15T10:38:53.807Z,101427.47
2023-03-15T10:41:41.265Z,101422.16
2023-03-15T10:44:24.711Z,101418.66
2023-03-15T10:47:24.502Z,101409.88
2023-03-15T10:49:59.605Z,101422.97
2023-03-15T10:52:39.319Z,101416.75
2023-03-15T10:55:21.849Z,101411.47
2023-03-15T10:57:56.592Z,101405.25
2023-03-15T11:00:29.943Z,101398.91
2023-03-15T11:03:18.085Z,101396.81
2023-03-15T11:05:51.482Z,101401.06
2023-03-15T11:08:25.223Z,101393.19
2023-03-15T11:10:59.048Z,101384.34
2023-03-15T11:13:31.100Z,101378.28
2023-03-15T11:16:04.683Z,101375.84
2023-03-15T11:18:47.135Z,101357.97
2023-03-15T11:21:16.265Z,101364.91
2023-03-15T11:23:48.078Z,101367.28
2023-03-15T11:26:33.003Z,101372.53
2023-03-15T11:29:21.310Z,101361.88
2023-03-15T11:31:51.300Z,101369.91
2023-03-15T11:34:36.566Z,101361.31
2023-03-15T11:37:14.413Z,101357.16
2023-03-15T11:40:15.536Z,101359.19
2023-03-15T11:43:29.318Z,101352.25
2023-03-15T11:46:14.976Z,101348.94
2023-03-15T11:49:15.270Z,101339.28
2023-03-15T11:51:43.130Z,101345.31
2023-03-15T11:54:15.577Z,101350.66
2023-03-15T11:57:27.461Z,101341.84
2023-03-15T11:59:56.605Z,101331.25
2023-03-15T12:02:26.816Z,101341.78
2023-03-15T12:04:55.797Z,101331.97
2023-03-15T12:07:31.335Z,101329.22
2023-03-15T12:10:04.763Z,101338.13
2023-03-15T12:12:32.349Z,101326.03
2023-03-15T12:15:06.280Z,101328.75
2023-03-15T12:17:55.632Z,101326.25
2023-03-15T12:20:38.812Z,101311.34
2023-03-15T12:23:17.905Z,101309.56
2023-03-15T12:26:03.438Z,101307.91
2023-03-15T12:28:41.472Z,101298.28
2023-03-15T12:31:15.831Z,101293.88
2023-03-15T12:33:57.789Z,101290.41
2023-03-15T12:36:41.380Z,101288.72
2023-03-15T12:39:17.534Z,101272.91
2023-03-15T12:41:51.455Z,101274.59
2023-03-15T12:44:33.936Z,101271.06
2023-03-15T12:47:03.799Z,101264.94
2023-03-15T12:49:41.320Z,101256.06
2023-03-15T12:52:11.675Z,101258.69
2023-03-15T12:54:57.509Z,101275.41
2023-03-15T12:57:30.196Z,101285.06
2023-03-15T13:00:11.995Z,101283.41
2023-03-15T13:02:50.280Z,101288.69
2023-03-15T13:05:26.107Z,101280.69
2023-03-15T13:07:56.603Z,101279.84
2023-03-15T13:11:02.857Z,101285.91
2023-03-15T13:13:52.151Z,101283.28
2023-03-15T13:16:44.629Z,101283.28
2023-03-15T13:19:12.167Z,101273.66
2023-03-15T13:22:01.974Z,101263.16
2023-03-15T13:24:52.873Z,101266.69
2023-03-15T13:27:53.698Z,101272.03
2023-03-15T13:30:55.507Z,101263.28
2023-03-15T13:33:27.125Z,101257.22
2023-03-15T13:36:10.966Z,101265.09
2023-03-15T13:38:44.379Z,101262.47
2023-03-15T13:41:20.908Z,101254.56
2023-03-15T13:43:51.406Z,101256.34
2023-03-15T13:46:24.592Z,101258.19
2023-03-15T13:48:54.423Z,101252.94
2023-03-15T13:51:26.364Z,101244.19
2023-03-15T13:54:25.121Z,101229.25
2023-03-15T13:57:01.482Z,101224.81
2023-03-15T13:59:55.154Z,101224.03
2023-03-15T14:02:52.420Z,101219.63
2023-03-15T14:05:29.621Z,101217.00
2023-03-15T14:07:57.167Z,101218.78
2023-03-15T14:10:33.884Z,101219.63
2023-03-15T14:13:46.272Z,101230.16
2023-03-15T14:16:31.534Z,101219.66
2023-03-15T14:19:18.317Z,101210.94
2023-03-15T14:21:57.246Z,101217.94
2023-03-15T14:24:37.887Z,101217.06
2023-03-15T14:27:08.881Z,101210.94
2023-03-15T14:29:39.107Z,101200.44
2023-03-15T14:32:09.507Z,101204.84
2023-03-15T14:34:45.465Z,101203.94
2023-03-15T14:37:41.077Z,101204.81
2023-03-15T14:40:29.789Z,101196.94
2023-03-15T14:42:57.255Z,101199.59
2023-03-15T14:45:24.806Z,101203.06
2023-03-15T14:47:57.643Z,101195.19
2023-03-15T14:50:34.634Z,101203.91
2023-03-15T14:53:02.665Z,101201.28
2023-03-15T14:55:35.189Z,101196.91
2023-03-15T14:58:14.609Z,101186.41
2023-03-15T15:00:44.650Z,101183.78
2023-03-15T15:03:22.449Z,101176.78
2023-03-15T15:05:50.086Z,101185.53
2023-03-15T15:08:22.441Z,101182.03
2023-03-15T15:10:52.313Z,101185.53
2023-03-15T15:13:22.859Z,101184.66
2023-03-15T15:15:56.102Z,101184.66
2023-03-15T15:18:26.506Z,101169.78
2023-03-15T15:20:56.586Z,101174.16
2023-03-15T15:23:28.245Z,101174.16
2023-03-15T15:26:04.714Z,101180.31
2023-03-15T15:28:36.954Z,101185.56
2023-03-15T15:31:07.003Z,101180.31
2023-03-15T15:33:34.808Z,101175.91
2023-03-15T15:36:02.940Z,101168.03
2023-03-15T15:38:38.386Z,101161.00
2023-03-15T15:41:13.395Z,101153.97
2023-03-15T15:43:42.028Z,101145.22
2023-03-15T15:46:11.616Z,101143.50
2023-03-15T15:48:40.568Z,101142.59
2023-03-15T15:51:19.841Z,101146.16
2023-03-15T15:53:47.692Z,101145.25
2023-03-15T15:56:15.925Z,101139.13
2023-03-15T15:58:44.751Z,101139.09
2023-03-15T16:01:14.411Z,101146.09
2023-03-15T16:03:42.602Z,101144.41
2023-03-15T16:06:21.230Z,101140.88
2023-03-15T16:08:51.224Z,101133.88
2023-03-15T16:11:19.480Z,101130.34
2023-03-15T16:13:49.675Z,101127.72
2023-03-15T16:16:18.014Z,101136.50
2023-03-15T16:18:45.820Z,101132.13
2023-03-15T16:21:33.708Z,101139.97
2023-03-15T16:24:24.896Z,101126.84
2023-03-15T16:26:59.870Z,101125.09
2023-03-15T16:29:35.445Z,101124.25
2023-03-15T16:32:15.966Z,101120.72
2023-03-15T16:34:48.436Z,101118.97
2023-03-15T16:37:25.936Z,101114.53
2023-03-15T16:39:57.431Z,101104.03
2023-03-15T16:42:25.846Z,101098.75
2023-03-15T16:44:53.776Z,101110.13
2023-03-15T16:47:21.438Z,101098.72
2023-03-15T16:49:48.831Z,101089.97
2023-03-15T16:52:17.367Z,101069.00
2023-03-15T16:54:47.553Z,101074.25
2023-03-15T16:57:22.693Z,101074.25
2023-03-15T16:59:50.904Z,101077.75
2023-03-15T17:02:27.734Z,101074.25
2023-03-15T17:04:55.417Z,101085.56
2023-03-15T17:07:31.415Z,101082.00
2023-03-15T17:10:06.538Z,101088.06
2023-03-15T17:12:35.787Z,101085.44
2023-03-15T17:15:03.567Z,101078.50
2023-03-15T17:17:36.308Z,101083.66
2023-03-15T17:20:22.015Z,101086.22
2023-03-15T17:22:51.361Z,101085.34
2023-03-15T17:25:20.239Z,101073.97
2023-03-15T17:27:49.271Z,101077.50
2023-03-15T17:30:19.335Z,101073.97
2023-03-15T17:32:47.280Z,101073.97
2023-03-15T17:35:16.403Z,101060.88
2023-03-15T17:37:47.915Z,101062.69
2023-03-15T17:40:30.717Z,101060.00
2023-03-15T17:43:00.986Z,101069.56
2023-03-15T17:45:35.757Z,101060.81
2023-03-15T17:48:04.436Z,101057.34
2023-03-15T17:50:33.580Z,101051.22
2023-03-15T17:53:15.888Z,101067.84
2023-03-15T17:55:44.070Z,101052.91
2023-03-15T17:58:22.890Z,101061.66
2023-03-15T18:00:53.669Z,101056.34
2023-03-15T18:03:23.268Z,101058.88
2023-03-15T18:05:51.054Z,101058.91
2023-03-15T18:08:21.503Z,101063.22
2023-03-15T18:10:51.605Z,101078.03
2023-03-15T18:13:23.370Z,101057.19
2023-03-15T18:15:51.559Z,101062.41
2023-03-15T18:18:19.863Z,101061.50
2023-03-15T18:20:49.551Z,101065.81
2023-03-15T18:23:18.501Z,101063.19
2023-03-15T18:25:46.375Z,101060.63
2023-03-15T18:28:14.167Z,101058.06
2023-03-15T18:30:41.744Z,101065.03
2023-03-15T18:33:11.065Z,101054.56
2023-03-15T18:35:38.693Z,101060.59
2023-03-15T18:38:06.210Z,101057.16
2023-03-15T18:40:35.434Z,101052.81
2023-03-15T18:43:05.350Z,101050.09
2023-03-15T18:45:35.671Z,101055.28
2023-03-15T18:48:04.519Z,101058.81
2023-03-15T18:50:33.742Z,101057.09
2023-03-15T18:53:03.537Z,101050.13
2023-03-15T18:55:32.173Z,101058.03
2023-03-15T18:57:59.610Z,101061.47
2023-03-15T19:00:32.726Z,101059.72
2023-03-15T19:03:01.363Z,101063.19
2023-03-15T19:05:31.953Z,101049.16
2023-03-15T19:07:59.475Z,101061.41
2023-03-15T19:10:27.548Z,101061.41
2023-03-15T19:12:55.180Z,101064.88
2023-03-15T19:15:23.894Z,101063.94
2023-03-15T19:17:54.626Z,101062.19
2023-03-15T19:20:23.363Z,101056.16
2023-03-15T19:22:52.381Z,101061.28
2023-03-15T19:25:20.995Z,101063.03
2023-03-15T19:27:48.765Z,101051.72
2023-03-15T19:30:20.981Z,101049.00
2023-03-15T19:32:50.947Z,101052.47
2023-03-15T19:35:20.182Z,101044.50
2023-03-15T19:37:48.883Z,101040.31
2023-03-15T19:40:18.497Z,101044.69
2023-03-15T19:42:47.079Z,101038.53
2023-03-15T19:45:15.194Z,101043.91
2023-03-15T19:47:42.845Z,101038.56
2023-03-15T19:50:12.908Z,101035.94
2023-03-15T19:52:46.118Z,101036.81
2023-03-15T19:55:16.488Z,101036.72
2023-03-15T19:57:44.201Z,101037.50
2023-03-15T20:00:14.439Z,101027.03
2023-03-15T20:02:43.036Z,101030.53
2023-03-15T20:05:13.521Z,101031.44
2023-03-15T20:07:42.541Z,101020.06
2023-03-15T20:10:11.740Z,101026.34
2023-03-15T20:12:42.664Z,101026.22
2023-03-15T20:15:12.888Z,101027.03
2023-03-15T20:17:41.156Z,101028.75
2023-03-15T20:20:11.060Z,101028.78
2023-03-15T20:22:41.232Z,101027.97
2023-03-15T20:25:11.421Z,101032.22
2023-03-15T20:27:39.095Z,101023.44
2023-03-15T20:30:08.617Z,101027.94
2023-03-15T20:32:36.431Z,101021.78
2023-03-15T20:35:09.129Z,101021.72
2023-03-15T20:37:40.557Z,101016.59
2023-03-15T20:40:16.076Z,101019.19
2023-03-15T20:42:43.940Z,101025.44
2023-03-15T20:45:12.789Z,101027.06
2023-03-15T20:47:41.331Z,101020.03
2023-03-15T20:50:10.595Z,101030.47
2023-03-15T20:52:38.372Z,101017.38
2023-03-15T20:55:08.006Z,101019.09
2023-03-15T20:57:36.651Z,101018.97
2023-03-15T21:00:23.731Z,101014.78
2023-03-15T21:02:51.499Z,101018.13
2023-03-15T21:05:19.437Z,101018.13
2023-03-15T21:07:46.927Z,101017.25
2023-03-15T21:10:15.029Z,101011.06
2023-03-15T21:12:44.126Z,101009.31
2023-03-15T21:15:17.967Z,101008.38
2023-03-15T21:17:48.948Z,101012.72
2023-03-15T21:20:18.115Z,101012.81
2023-03-15T21:22:45.676Z,101009.25
2023-03-15T21:25:13.458Z,101002.28
2023-03-15T21:27:41.261Z,100998.78
2023-03-15T21:30:09.517Z,101001.38
2023-03-15T21:32:38.392Z,100999.66
2023-03-15T21:35:06.938Z,100997.03
2023-03-15T21:37:34.567Z,100988.31
2023-03-15T21:40:02.449Z,100992.78
2023-03-15T21:42:29.872Z,100985.84
2023-03-15T21:44:57.356Z,100986.69
2023-03-15T21:47:24.932Z,100985.91
2023-03-15T21:49:54.177Z,100983.25
2023-03-15T21:52:21.917Z,100977.19
2023-03-15T21:54:49.361Z,100980.69
2023-03-15T21:57:16.795Z,100976.25
2023-03-15T21:59:44.579Z,100975.41
2023-03-15T22:02:14.350Z,100967.53
2023-03-15T22:04:42.494Z,100964.88
2023-03-15T22:07:11.186Z,100970.03
2023-03-15T22:09:39.166Z,100972.72
2023-03-15T22:12:07.254Z,100970.19
2023-03-15T22:14:34.821Z,100971.03
2023-03-15T22:17:04.980Z,100976.22
2023-03-15T22:19:32.665Z,100962.25
2023-03-15T22:22:00.689Z,100966.59
2023-03-15T22:24:28.082Z,100963.91
2023-03-15T22:26:56.267Z,100962.16
2023-03-15T22:29:23.685Z,100951.78
2023-03-15T22:31:51.742Z,100955.34
2023-03-15T22:34:19.890Z,100949.16
2023-03-15T22:36:47.379Z,100949.91
2023-03-15T22:39:14.834Z,100954.28
2023-03-15T22:41:42.334Z,100954.41
2023-03-15T22:44:09.967Z,100950.00
2023-03-15T22:46:37.728Z,100957.81
2023-03-15T22:49:05.269Z,100959.53
2023-03-15T22:51:32.732Z,100959.56
2023-03-15T22:54:00.244Z,100949.06
2023-03-15T22:56:27.688Z,100947.34
2023-03-15T22:58:55.722Z,100953.59
2023-03-15T23:01:23.547Z,100942.19
2023-03-15T23:03:51.309Z,100951.84
2023-03-15T23:06:19.688Z,100950.09
2023-03-15T23:08:47.086Z,100942.25
2023-03-15T23:11:14.555Z,100942.22
2023-03-15T23:13:42.411Z,100942.97
2023-03-15T23:16:10.006Z,100941.25
2023-03-15T23:18:37.541Z,100936.97
2023-03-15T23:21:06.378Z,100929.00
2023-03-15T23:23:34.426Z,100927.22
2023-03-15T23:26:02.432Z,100927.22
2023-03-15T23:28:30.695Z,100921.13
2023-03-15T23:31:03.314Z,100924.66
2023-03-15T23:33:34.108Z,100927.25
2023-03-15T23:36:02.939Z,100922.84
2023-03-15T23:38:30.425Z,100923.72
2023-03-15T23:40:59.178Z,100910.75
2023-03-15T23:43:26.810Z,100909.91
2023-03-15T23:46:05.319Z,100908.22
2023-03-15T23:48:35.765Z,100898.63
2023-03-15T23:51:03.285Z,100906.41
2023-03-15T23:53:31.789Z,100902.03
2023-03-15T23:55:59.376Z,100902.06
2023-03-15T23:58:27.072Z,100896.09
